createdAt,value
2023-03-19T00:01:08.652Z,13.40
2023-03-19T00:03:44.749Z,17.50
2023-03-19T00:06:13.477Z,14.80
2023-03-19T00:08:42.266Z,17.30
2023-03-19T00:11:12.692Z,18.20
2023-03-19T00:13:41.071Z,20.00
2023-03-19T00:16:09.536Z,19.50
2023-03-19T00:18:38.690Z,18.90
2023-03-19T00:21:08.052Z,19.20
2023-03-19T00:23:36.937Z,19.10
2023-03-19T00:26:05.503Z,18.90
2023-03-19T00:28:34.010Z,20.60
2023-03-19T00:31:16.713Z,20.60
2023-03-19T00:33:45.410Z,19.80
2023-03-19T00:36:14.167Z,21.20
2023-03-19T00:38:43.965Z,21.80
2023-03-19T00:41:13.106Z,21.50
2023-03-19T00:43:41.691Z,24.00
2023-03-19T00:46:10.035Z,84.40
2023-03-19T00:48:38.449Z,115.50
2023-03-19T00:51:09.802Z,30.30
2023-03-19T00:53:43.995Z,21.60
2023-03-19T00:56:14.247Z,21.70
2023-03-19T00:58:42.423Z,21.30
2023-03-19T01:01:14.170Z,23.00
2023-03-19T01:03:45.233Z,22.50
2023-03-19T01:06:14.103Z,29.10
2023-03-19T01:08:42.786Z,24.80
2023-03-19T01:11:14.678Z,25.10
2023-03-19T01:13:43.229Z,24.00
2023-03-19T01:16:11.657Z,24.40
2023-03-19T01:18:39.885Z,20.70
2023-03-19T01:21:08.585Z,21.30
2023-03-19T01:23:43.297Z,20.50
2023-03-19T01:26:13.211Z,24.20
2023-03-19T01:28:41.707Z,31.90
2023-03-19T01:31:10.765Z,22.70
2023-03-19T01:36:28.435Z,22.80
2023-03-19T01:39:07.777Z,24.10
2023-03-19T01:41:37.012Z,22.60
2023-03-19T01:44:31.502Z,25.80
2023-03-19T01:47:25.224Z,26.00
2023-03-19T01:50:43.488Z,26.20
2023-03-19T01:53:54.111Z,25.20
2023-03-19T01:56:40.062Z,22.10
2023-03-19T01:59:26.883Z,26.10
2023-03-19T02:02:29.438Z,27.50
2023-03-19T02:05:02.645Z,26.90
2023-03-19T02:07:34.430Z,30.00
2023-03-19T02:10:07.527Z,32.20
2023-03-19T02:12:38.211Z,27.70
2023-03-19T02:15:07.935Z,30.30
2023-03-19T02:17:36.912Z,33.30
2023-03-19T02:20:20.751Z,32.10
2023-03-19T02:23:04.337Z,30.20
2023-03-19T02:26:00.525Z,27.80
2023-03-19T02:28:30.641Z,29.20
2023-03-19T02:30:58.801Z,24.90
2023-03-19T02:33:28.009Z,23.90
2023-03-19T02:35:58.047Z,25.70
2023-03-19T02:38:27.842Z,23.90
2023-03-19T02:41:02.534Z,25.70
2023-03-19T02:43:33.507Z,26.70
2023-03-19T02:46:04.513Z,25.00
2023-03-19T02:48:33.276Z,25.70
2023-03-19T02:51:01.839Z,25.40
2023-03-19T02:53:30.510Z,27.50
2023-03-19T02:55:58.901Z,27.50
2023-03-19T02:58:27.366Z,42.10
2023-03-19T03:00:55.991Z,33.40
2023-03-19T03:03:24.241Z,29.70
2023-03-19T03:05:52.613Z,29.70
2023-03-19T03:08:20.889Z,41.30
2023-03-19T03:10:49.587Z,33.60
2023-03-19T03:13:20.720Z,35.10
2023-03-19T03:15:48.997Z,32.90
2023-03-19T03:18:17.487Z,36.30
2023-03-19T03:20:45.979Z,34.70
2023-03-19T03:23:14.659Z,37.90
2023-03-19T03:25:42.998Z,32.20
2023-03-19T03:28:12.366Z,35.20
2023-03-19T03:30:40.613Z,32.80
2023-03-19T03:33:08.953Z,39.00
2023-03-19T03:35:37.488Z,35.80
2023-03-19T03:38:07.596Z,34.70
2023-03-19T03:40:36.871Z,33.90
2023-03-19T03:43:05.578Z,33.90
2023-03-19T03:45:35.616Z,33.40
2023-03-19T03:48:04.506Z,33.40
2023-03-19T03:50:33.243Z,36.70
2023-03-19T03:53:05.952Z,33.50
2023-03-19T03:55:34.737Z,33.80
2023-03-19T03:58:03.331Z,32.80
2023-03-19T04:00:31.766Z,34.80
2023-03-19T04:03:00.619Z,35.30
2023-03-19T04:05:29.075Z,37.00
2023-03-19T04:07:57.362Z,38.50
2023-03-19T04:10:26.758Z,38.00
2023-03-19T04:12:55.039Z,36.10
2023-03-19T04:15:23.618Z,35.90
2023-03-19T04:17:52.818Z,40.70
2023-03-19T04:20:23.777Z,43.50
2023-03-19T04:22:52.133Z,38.20
2023-03-19T04:25:20.715Z,39.50
2023-03-19T04:27:49.819Z,35.70
2023-03-19T04:30:19.217Z,39.20
2023-03-19T04:32:47.873Z,39.40
2023-03-19T04:35:18.449Z,41.70
2023-03-19T04:37:48.896Z,41.20
2023-03-19T04:40:18.686Z,38.20
2023-03-19T04:42:47.671Z,37.70
2023-03-19T04:45:27.280Z,36.40
2023-03-19T04:47:56.402Z,36.70
2023-03-19T04:50:28.364Z,38.80
2023-03-19T04:52:56.849Z,34.90
2023-03-19T04:55:25.027Z,34.50
2023-03-19T04:58:01.477Z,34.40
2023-03-19T05:00:31.726Z,32.40
2023-03-19T05:03:01.635Z,33.70
2023-03-19T05:05:31.750Z,32.20
2023-03-19T05:08:00.435Z,29.20
2023-03-19T05:10:29.226Z,30.80
2023-03-19T05:12:58.214Z,35.90
2023-03-19T05:15:29.678Z,37.60
2023-03-19T05:18:02.248Z,40.90
2023-03-19T05:20:42.822Z,37.10
2023-03-19T05:23:18.771Z,40.40
2023-03-19T05:25:53.086Z,41.70
2023-03-19T05:28:25.361Z,54.40
2023-03-19T05:30:53.963Z,59.80
2023-03-19T05:33:27.135Z,43.10
2023-03-19T05:35:58.211Z,42.00
2023-03-19T05:38:43.058Z,46.70
2023-03-19T05:41:14.917Z,46.60
2023-03-19T05:43:55.261Z,47.30
2023-03-19T05:46:39.352Z,47.80
2023-03-19T05:49:08.725Z,46.90
2023-03-19T05:51:36.985Z,47.60
2023-03-19T05:54:07.908Z,44.20
2023-03-19T05:56:55.657Z,44.00
2023-03-19T05:59:36.732Z,39.20
2023-03-19T06:02:24.081Z,31.80
2023-03-19T06:04:54.071Z,30.80
2023-03-19T06:07:25.429Z,36.00
2023-03-19T06:09:55.643Z,31.00
2023-03-19T06:12:25.046Z,30.10
2023-03-19T06:15:20.259Z,34.30
2023-03-19T06:17:48.842Z,34.10
2023-03-19T06:20:19.172Z,31.70
2023-03-19T06:22:47.949Z,31.70
2023-03-19T06:25:16.226Z,30.80
2023-03-19T06:27:44.507Z,28.20
2023-03-19T06:30:36.224Z,31.00
2023-03-19T06:33:06.797Z,30.60
2023-03-19T06:35:38.545Z,30.20
2023-03-19T06:38:07.618Z,27.30
2023-03-19T06:40:36.288Z,28.40
2023-03-19T06:43:04.795Z,26.20
2023-03-19T06:45:33.017Z,24.70
2023-03-19T06:48:02.285Z,27.80
2023-03-19T06:50:30.745Z,26.60
2023-03-19T06:52:59.227Z,25.40
2023-03-19T06:55:27.607Z,26.80
2023-03-19T06:57:56.087Z,26.20
2023-03-19T07:00:27.739Z,25.40
2023-03-19T07:02:55.925Z,28.20
2023-03-19T07:05:24.093Z,25.40
2023-03-19T07:07:52.376Z,24.80
2023-03-19T07:10:21.761Z,24.10
2023-03-19T07:12:49.945Z,26.60
2023-03-19T07:15:20.479Z,27.50
2023-03-19T07:17:49.726Z,24.90
2023-03-19T07:20:18.051Z,24.60
2023-03-19T07:22:46.123Z,28.00
2023-03-19T07:25:14.510Z,26.00
2023-03-19T07:27:42.781Z,28.30
2023-03-19T07:30:12.392Z,23.90
2023-03-19T07:32:41.250Z,25.50
2023-03-19T07:35:10.758Z,30.40
2023-03-19T07:37:38.961Z,27.80
2023-03-19T07:40:08.474Z,24.40
2023-03-19T07:42:36.653Z,26.50
2023-03-19T07:45:06.177Z,25.50
2023-03-19T07:47:34.729Z,26.10
2023-03-19T07:50:03.002Z,25.10
2023-03-19T07:52:31.623Z,25.60
2023-03-19T07:54:59.970Z,26.00
2023-03-19T07:57:28.247Z,27.10
2023-03-19T07:59:56.518Z,24.60
2023-03-19T08:02:24.822Z,27.90
2023-03-19T08:04:53.450Z,24.70
2023-03-19T08:07:21.862Z,23.90
2023-03-19T08:09:50.033Z,25.00
2023-03-19T08:12:18.521Z,25.80
2023-03-19T08:14:46.692Z,24.60
2023-03-19T08:17:14.969Z,24.40
2023-03-19T08:19:43.863Z,24.70
2023-03-19T08:22:12.857Z,23.40
2023-03-19T08:24:41.128Z,23.90
2023-03-19T08:27:09.715Z,25.20
2023-03-19T08:29:37.889Z,24.60
2023-03-19T08:32:06.683Z,25.20
2023-03-19T08:34:34.744Z,26.30
2023-03-19T08:37:02.762Z,25.30
2023-03-19T08:39:30.893Z,22.00
2023-03-19T08:41:59.142Z,23.40
2023-03-19T08:44:27.951Z,23.00
2023-03-19T08:46:56.574Z,22.80
2023-03-19T08:49:25.425Z,24.30
2023-03-19T08:51:53.563Z,20.40
2023-03-19T08:54:23.021Z,21.40
2023-03-19T08:56:51.486Z,21.80
2023-03-19T08:59:19.672Z,22.90
2023-03-19T09:01:54.937Z,19.90
2023-03-19T09:04:23.301Z,18.10
2023-03-19T09:06:51.733Z,20.20
2023-03-19T09:09:21.676Z,19.70
2023-03-19T09:11:50.056Z,19.70
2023-03-19T09:14:20.273Z,19.60
2023-03-19T09:16:48.666Z,17.90
2023-03-19T09:19:17.476Z,17.90
2023-03-19T09:21:46.459Z,18.30
2023-03-19T09:24:14.648Z,19.30
2023-03-19T09:26:43.048Z,20.30
2023-03-19T09:29:11.168Z,19.50
2023-03-19T09:31:39.942Z,19.90
2023-03-19T09:34:09.048Z,19.60
2023-03-19T09:36:38.012Z,18.70
2023-03-19T09:39:07.661Z,19.40
2023-03-19T09:42:00.012Z,19.60
2023-03-19T09:44:31.268Z,19.30
2023-03-19T09:47:17.233Z,19.70
2023-03-19T09:49:51.140Z,17.30
2023-03-19T09:52:30.582Z,16.60
2023-03-19T09:55:12.743Z,16.60
2023-03-19T09:57:40.882Z,15.50
2023-03-19T10:00:22.896Z,16.20
2023-03-19T10:03:03.678Z,18.30
2023-03-19T10:05:52.177Z,18.90
2023-03-19T10:08:49.650Z,17.40
2023-03-19T10:11:24.877Z,18.50
2023-03-19T10:14:30.110Z,17.10
2023-03-19T10:17:01.370Z,17.20
2023-03-19T10:19:41.992Z,16.10
2023-03-19T10:22:20.749Z,15.90
2023-03-19T10:24:58.763Z,16.90
2023-03-19T10:27:29.407Z,17.90
2023-03-19T10:29:57.628Z,28.40
2023-03-19T10:32:40.553Z,15.20
2023-03-19T10:35:43.904Z,15.40
2023-03-19T10:38:26.718Z,15.00
2023-03-19T10:41:06.269Z,15.00
2023-03-19T10:43:36.538Z,14.60
2023-03-19T10:46:04.854Z,16.80
2023-03-19T10:48:34.981Z,18.00
2023-03-19T10:51:06.733Z,15.20
2023-03-19T10:53:37.745Z,17.40
2023-03-19T10:56:30.354Z,16.40
2023-03-19T10:59:21.452Z,18.70
2023-03-19T11:01:50.021Z,19.20
2023-03-19T11:04:22.125Z,20.70
2023-03-19T11:06:53.953Z,14.40
2023-03-19T11:09:44.755Z,14.40
2023-03-19T11:12:19.465Z,18.60
2023-03-19T11:14:51.673Z,14.20
2023-03-19T11:17:38.992Z,14.90
2023-03-19T11:20:39.391Z,13.50
2023-03-19T11:23:15.795Z,13.50
2023-03-19T11:25:52.056Z,12.90
2023-03-19T11:28:26.312Z,17.10
2023-03-19T11:31:21.764Z,17.10
2023-03-19T11:34:20.459Z,11.50
2023-03-19T11:37:03.674Z,21.50
2023-03-19T11:39:56.176Z,12.70
2023-03-19T11:42:35.961Z,22.90
2023-03-19T11:45:13.493Z,12.70
2023-03-19T11:47:53.103Z,16.20
2023-03-19T11:50:38.653Z,11.20
2023-03-19T11:53:31.860Z,59.00
2023-03-19T11:56:29.979Z,52.00
2023-03-19T11:59:17.690Z,34.60
2023-03-19T12:02:04.843Z,30.00
2023-03-19T12:04:54.453Z,20.60
2023-03-19T12:07:35.843Z,75.70
2023-03-19T12:10:32.724Z,15.00
2023-03-19T12:13:04.505Z,32.90
2023-03-19T12:15:50.244Z,66.20
2023-03-19T12:18:21.172Z,76.90
2023-03-19T12:21:01.426Z,11.70
2023-03-19T12:23:51.513Z,11.80
2023-03-19T12:26:33.101Z,11.90
2023-03-19T12:29:19.528Z,24.40
2023-03-19T12:32:07.581Z,12.90
2023-03-19T12:34:49.291Z,61.40
2023-03-19T12:37:24.482Z,11.50
2023-03-19T12:40:02.120Z,13.20
2023-03-19T12:42:37.796Z,11.20
2023-03-19T12:45:20.020Z,11.60
2023-03-19T12:47:49.528Z,9.00
2023-03-19T12:50:19.898Z,10.90
2023-03-19T12:52:53.568Z,34.70
2023-03-19T12:55:25.573Z,11.20
2023-03-19T12:58:24.327Z,11.10
2023-03-19T13:01:09.188Z,15.20
2023-03-19T13:04:05.818Z,77.40
2023-03-19T13:06:59.489Z,10.90
2023-03-19T13:09:31.463Z,17.30
2023-03-19T13:12:10.667Z,9.30
2023-03-19T13:15:07.451Z,63.50
2023-03-19T13:18:00.285Z,19.50
2023-03-19T13:20:48.739Z,8.90
2023-03-19T13:23:32.688Z,10.40
2023-03-19T13:26:04.904Z,9.70
2023-03-19T13:28:36.724Z,13.10
2023-03-19T13:31:07.179Z,11.00
2023-03-19T13:33:38.866Z,66.70
2023-03-19T13:36:14.619Z,16.00
2023-03-19T13:38:51.728Z,14.70
2023-03-19T13:41:35.575Z,9.40
2023-03-19T13:44:22.314Z,8.80
2023-03-19T13:46:51.505Z,22.70
2023-03-19T13:49:19.660Z,13.70
2023-03-19T13:51:49.263Z,15.30
2023-03-19T13:54:32.537Z,10.50
2023-03-19T13:57:01.629Z,11.10
2023-03-19T13:59:31.410Z,13.60
2023-03-19T14:02:01.747Z,11.50
2023-03-19T14:04:30.927Z,10.50
2023-03-19T14:07:42.509Z,8.90
2023-03-19T14:10:23.077Z,9.70
2023-03-19T14:13:01.404Z,21.30
2023-03-19T14:15:30.943Z,11.20
2023-03-19T14:18:04.714Z,15.90
2023-03-19T14:20:47.854Z,13.40
2023-03-19T14:23:36.098Z,21.40
2023-03-19T14:26:23.083Z,8.30
2023-03-19T14:29:02.680Z,8.40
2023-03-19T14:31:34.075Z,20.10
2023-03-19T14:34:17.214Z,122.70
2023-03-19T14:37:03.621Z,41.70
2023-03-19T14:39:43.635Z,49.00
2023-03-19T14:42:33.645Z,73.00
2023-03-19T14:45:08.678Z,119.00
2023-03-19T14:47:42.897Z,28.50
2023-03-19T14:50:34.392Z,68.20
2023-03-19T14:53:19.492Z,232.10
2023-03-19T14:55:52.065Z,115.80
2023-03-19T14:58:21.611Z,140.90
2023-03-19T15:00:53.896Z,206.70
2023-03-19T15:03:24.580Z,163.10
2023-03-19T15:05:58.958Z,59.00
2023-03-19T15:33:32.946Z,26.00
2023-03-19T15:36:16.518Z,37.80
2023-03-19T15:39:07.830Z,22.20
2023-03-19T15:41:41.434Z,18.50
2023-03-19T15:44:16.977Z,10.30
2023-03-19T15:46:47.409Z,12.30
2023-03-19T15:49:26.382Z,11.10
2023-03-19T15:52:02.510Z,17.50
2023-03-19T15:54:32.717Z,79.60
2023-03-19T15:57:02.237Z,105.20
2023-03-19T15:59:31.937Z,26.90
2023-03-19T16:02:01.996Z,167.50
2023-03-19T16:04:38.471Z,73.90
2023-03-19T16:07:45.720Z,64.10
2023-03-19T16:10:28.992Z,273.50
2023-03-19T16:12:57.434Z,115.10
2023-03-19T16:15:43.985Z,166.60
2023-03-19T16:18:18.355Z,30.90
2023-03-19T16:20:59.525Z,78.20
2023-03-19T16:23:37.126Z,65.10
2023-03-19T16:26:20.361Z,38.70
2023-03-19T16:29:22.937Z,41.10
2023-03-19T16:32:04.354Z,31.50
2023-03-19T16:34:49.397Z,47.50
2023-03-19T16:37:26.875Z,94.00
2023-03-19T16:42:34.073Z,53.30
2023-03-19T16:45:17.529Z,45.20
2023-03-19T16:47:48.059Z,40.50
2023-03-19T16:50:17.802Z,40.50
2023-03-19T16:52:47.863Z,24.10
2023-03-19T16:55:24.741Z,23.50
2023-03-19T16:58:02.039Z,19.30
2023-03-19T17:00:32.613Z,15.90
2023-03-19T17:03:01.684Z,17.70
2023-03-19T17:05:30.746Z,23.10
2023-03-19T17:07:59.145Z,24.90
2023-03-19T17:10:31.974Z,26.80
2023-03-19T17:13:01.218Z,35.00
2023-03-19T17:15:39.060Z,39.30
2023-03-19T17:18:18.517Z,25.70
2023-03-19T17:21:12.041Z,24.00
2023-03-19T17:23:41.107Z,38.10
2023-03-19T17:26:20.362Z,26.80
2023-03-19T17:28:49.561Z,23.80
2023-03-19T17:31:24.188Z,22.80
2023-03-19T17:34:02.178Z,21.60
2023-03-19T17:36:31.176Z,23.80
2023-03-19T17:38:59.656Z,21.50
2023-03-19T17:41:30.471Z,21.50
2023-03-19T17:43:59.590Z,21.70
2023-03-19T17:46:29.042Z,27.60
2023-03-19T17:48:57.768Z,47.30
2023-03-19T17:51:26.366Z,26.90
2023-03-19T17:53:55.800Z,24.60
2023-03-19T17:56:26.234Z,26.00
2023-03-19T17:58:54.586Z,26.90
2023-03-19T18:01:27.850Z,30.70
2023-03-19T18:03:59.250Z,31.60
2023-03-19T18:06:34.107Z,45.60
2023-03-19T18:09:03.267Z,43.80
2023-03-19T18:11:31.752Z,34.00
2023-03-19T18:14:00.008Z,37.40
2023-03-19T18:16:31.838Z,38.50
2023-03-19T18:19:02.816Z,65.00
2023-03-19T18:21:31.702Z,75.60
2023-03-19T18:24:01.660Z,74.70
2023-03-19T18:26:30.203Z,64.70
2023-03-19T18:28:58.481Z,65.00
2023-03-19T18:31:27.196Z,75.40
2023-03-19T18:33:58.739Z,65.80
2023-03-19T18:36:31.363Z,65.60
2023-03-19T18:39:00.103Z,75.10
2023-03-19T18:41:29.372Z,87.60
2023-03-19T18:44:08.116Z,98.40
2023-03-19T18:46:38.374Z,91.20
2023-03-19T18:49:26.696Z,77.40
2023-03-19T18:52:04.818Z,76.60
2023-03-19T18:54:33.340Z,75.80
2023-03-19T18:57:02.365Z,75.00
2023-03-19T18:59:33.350Z,75.60
2023-03-19T19:02:03.740Z,78.30
2023-03-19T19:04:32.258Z,89.00
2023-03-19T19:07:01.881Z,88.50
2023-03-19T19:09:30.605Z,81.50
2023-03-19T19:12:01.048Z,73.00
2023-03-19T19:14:29.869Z,76.30
2023-03-19T19:16:58.343Z,71.20
2023-03-19T19:19:27.902Z,75.80
2023-03-19T19:21:56.182Z,68.10
2023-03-19T19:24:24.733Z,69.70
2023-03-19T19:26:54.464Z,69.10
2023-03-19T19:29:23.057Z,67.70
2023-03-19T19:31:52.739Z,68.70
2023-03-19T19:34:22.176Z,86.90
2023-03-19T19:36:51.307Z,117.90
2023-03-19T19:39:19.802Z,117.10
2023-03-19T19:41:48.440Z,112.10
2023-03-19T19:44:22.357Z,103.30
2023-03-19T19:46:53.449Z,110.80
2023-03-19T19:49:22.602Z,117.50
2023-03-19T19:51:51.184Z,119.00
2023-03-19T19:54:19.552Z,122.30
2023-03-19T19:56:48.447Z,119.20
2023-03-19T19:59:17.232Z,118.60
2023-03-19T20:01:46.401Z,120.80
2023-03-19T20:04:15.228Z,111.60
2023-03-19T20:06:43.501Z,111.50
2023-03-19T20:09:11.680Z,102.40
2023-03-19T20:11:39.956Z,106.60
2023-03-19T20:14:13.852Z,100.00
2023-03-19T20:16:42.569Z,100.60
2023-03-19T20:19:18.117Z,94.00
2023-03-19T20:21:46.878Z,99.70
2023-03-19T20:24:15.254Z,100.60
2023-03-19T20:26:43.736Z,99.60
2023-03-19T20:29:16.143Z,104.70
2023-03-19T20:31:46.611Z,99.10
2023-03-19T20:34:28.784Z,102.50
2023-03-19T20:37:01.117Z,103.30
2023-03-19T20:39:29.622Z,98.30
2023-03-19T20:41:58.087Z,104.00
2023-03-19T20:44:26.380Z,103.90
2023-03-19T20:46:54.636Z,102.30
2023-03-19T20:49:23.108Z,101.50
2023-03-19T20:51:51.588Z,98.90
2023-03-19T20:54:19.866Z,98.50
2023-03-19T20:56:48.862Z,100.30
2023-03-19T20:59:17.444Z,102.50
2023-03-19T21:01:45.971Z,102.50
2023-03-19T21:04:19.646Z,99.60
2023-03-19T21:06:53.436Z,98.70
2023-03-19T21:09:24.885Z,100.70
2023-03-19T21:11:53.567Z,100.40
2023-03-19T21:14:23.655Z,99.70
2023-03-19T21:16:52.075Z,95.40
2023-03-19T21:19:20.553Z,94.60
2023-03-19T21:21:48.738Z,93.50
2023-03-19T21:24:21.038Z,92.20
2023-03-19T21:26:49.502Z,89.80
2023-03-19T21:29:29.432Z,88.90
2023-03-19T21:31:58.037Z,92.40
2023-03-19T21:34:26.501Z,87.20
2023-03-19T21:36:55.120Z,90.50
2023-03-19T21:39:23.258Z,90.10
2023-03-19T21:41:51.429Z,91.30
2023-03-19T21:44:22.825Z,88.10
2023-03-19T21:46:51.612Z,88.20
2023-03-19T21:49:20.283Z,90.40
2023-03-19T21:51:50.090Z,87.30
2023-03-19T21:54:18.855Z,84.60
2023-03-19T21:56:47.443Z,81.10
2023-03-19T21:59:19.142Z,79.10
2023-03-19T22:01:47.550Z,82.50
2023-03-19T22:04:16.027Z,71.20
2023-03-19T22:06:44.234Z,73.40
2023-03-19T22:09:13.338Z,74.40
2023-03-19T22:11:42.732Z,73.50
2023-03-19T22:14:24.844Z,69.40
2023-03-19T22:16:56.122Z,70.30
2023-03-19T22:19:24.867Z,75.10
2023-03-19T22:21:53.660Z,74.90
2023-03-19T22:24:22.246Z,80.50
2023-03-19T22:26:56.616Z,75.70
2023-03-19T22:29:25.890Z,81.00
2023-03-19T22:31:56.375Z,80.10
2023-03-19T22:34:28.099Z,78.40
2023-03-19T22:36:56.839Z,74.70
2023-03-19T22:39:25.419Z,76.20
2023-03-19T22:41:53.800Z,76.30
2023-03-19T22:44:30.586Z,73.80
2023-03-19T22:47:01.089Z,66.30
2023-03-19T22:49:30.104Z,65.40
2023-03-19T22:51:58.701Z,64.80
2023-03-19T22:54:26.859Z,62.90
2023-03-19T22:56:55.545Z,60.70
2023-03-19T22:59:23.849Z,61.50
2023-03-19T23:01:52.324Z,56.00
2023-03-19T23:04:31.238Z,54.50
2023-03-19T23:07:01.272Z,54.70
2023-03-19T23:09:32.371Z,58.60
2023-03-19T23:12:02.528Z,57.90
2023-03-19T23:14:32.312Z,52.70
2023-03-19T23:17:04.056Z,53.60
2023-03-19T23:19:35.332Z,54.40
2023-03-19T23:22:05.938Z,59.10
2023-03-19T23:24:34.178Z,55.10
2023-03-19T23:27:03.928Z,54.50
2023-03-19T23:29:36.132Z,60.10
2023-03-19T23:32:05.103Z,58.40
2023-03-19T23:34:39.764Z,57.10
2023-03-19T23:37:14.262Z,59.60
2023-03-19T23:39:43.047Z,59.80
2023-03-19T23:42:17.979Z,54.20
2023-03-19T23:44:46.660Z,54.70
2023-03-19T23:47:15.688Z,52.40
2023-03-19T23:49:44.852Z,55.60
2023-03-19T23:52:14.181Z,60.10
2023-03-19T23:54:42.742Z,54.40
2023-03-19T23:57:15.779Z,55.70
2023-03-19T23:59:48.218Z,52.90
